Time;durP1;ratioP1;P1;durP2;ratioP2;P2;SDS_P1;SDS_P2;PMS_P1;PMS_P2;Temp;Humidity;BMP_temperature;BMP_pressure;BME280_temperature;BME280_humidity;BME280_pressure;Samples;Min_cycle;Max_cycle;Signal;HPM_P1;HPM_P2
2023/06/06 00:01:36;;;;;;;4.72;2.72;;;;;;;;;;4977622;28;20058;-83
2023/06/06 00:04:03;;;;;;;3.78;2.58;;;;;;;;;;4993718;28;20050;-83
2023/06/06 00:06:32;;;;;;;2.40;2.20;;;;;;;;;;4977733;28;20055;-83
2023/06/06 00:09:00;;;;;;;2.92;2.58;;;;;;;;;;4978393;28;20058;-83
2023/06/06 00:11:28;;;;;;;3.15;2.60;;;;;;;;;;4977680;28;20530;-83
2023/06/06 00:13:56;;;;;;;3.25;2.72;;;;;;;;;;4970132;28;20065;-83
2023/06/06 00:16:27;;;;;;;3.42;2.70;;;;;;;;;;4980627;28;20034;-83
2023/06/06 00:18:55;;;;;;;3.55;2.67;;;;;;;;;;4987747;28;20030;-83
2023/06/06 00:21:22;;;;;;;2.95;2.72;;;;;;;;;;5002153;28;20038;-83
2023/06/06 00:23:49;;;;;;;4.45;3.00;;;;;;;;;;4986646;28;20065;-84
2023/06/06 00:26:16;;;;;;;3.08;2.60;;;;;;;;;;5002314;28;20080;-83
2023/06/06 00:28:43;;;;;;;4.45;3.50;;;;;;;;;;5002359;28;20176;-84
2023/06/06 00:31:10;;;;;;;3.60;3.20;;;;;;;;;;5002068;28;20030;-83
2023/06/06 00:33:37;;;;;;;3.17;2.80;;;;;;;;;;5002208;28;20101;-83
2023/06/06 00:36:04;;;;;;;2.83;2.60;;;;;;;;;;4986266;28;20073;-83
2023/06/06 00:38:32;;;;;;;4.95;2.95;;;;;;;;;;5002295;28;20038;-83
2023/06/06 00:40:59;;;;;;;3.28;2.88;;;;;;;;;;5062276;23;20049;-73
2023/06/06 00:43:25;;;;;;;3.38;3.08;;;;;;;;;;5031227;28;20084;-73
2023/06/06 00:45:52;;;;;;;4.05;2.92;;;;;;;;;;5047425;28;20123;-73
2023/06/06 00:48:20;;;;;;;3.00;2.78;;;;;;;;;;5014678;28;20057;-74
2023/06/06 00:50:47;;;;;;;3.35;3.05;;;;;;;;;;5031015;28;20279;-74
2023/06/06 00:53:14;;;;;;;5.93;3.45;;;;;;;;;;5031288;28;20053;-75
2023/06/06 00:55:41;;;;;;;3.22;2.95;;;;;;;;;;5047479;28;20053;-74
2023/06/06 00:58:09;;;;;;;3.42;3.13;;;;;;;;;;5047124;28;20054;-74
2023/06/06 01:00:36;;;;;;;4.55;2.90;;;;;;;;;;5014364;28;20104;-74
2023/06/06 01:03:03;;;;;;;5.47;4.63;;;;;;;;;;5030872;28;20053;-74
2023/06/06 01:05:31;;;;;;;3.60;3.08;;;;;;;;;;5031088;28;20088;-74
2023/06/06 01:07:58;;;;;;;3.20;2.90;;;;;;;;;;5030622;28;20088;-74
2023/06/06 01:10:25;;;;;;;3.95;3.25;;;;;;;;;;5047130;28;20057;-74
2023/06/06 01:13:22;;;;;;;5.22;3.65;;;;;;;;;;5030679;28;20137;-74
2023/06/06 01:15:53;;;;;;;4.13;3.72;;;;;;;;;;5029947;28;20132;-74
2023/06/06 01:18:22;;;;;;;5.22;3.40;;;;;;;;;;5014664;28;20093;-74
2023/06/06 01:20:49;;;;;;;5.13;3.28;;;;;;;;;;5014339;28;20140;-74
2023/06/06 01:23:16;;;;;;;5.93;4.03;;;;;;;;;;4998102;28;20095;-74
2023/06/06 01:25:45;;;;;;;4.18;3.75;;;;;;;;;;5030574;28;20057;-75
2023/06/06 01:28:15;;;;;;;3.60;3.28;;;;;;;;;;5047014;28;20119;-74
2023/06/06 01:30:43;;;;;;;4.03;3.72;;;;;;;;;;5032936;28;20126;-74
2023/06/06 01:33:39;;;;;;;3.53;3.22;;;;;;;;;;5054365;28;20053;-74
2023/06/06 01:36:15;;;;;;;3.78;3.47;;;;;;;;;;5053870;28;20049;-74
2023/06/06 01:38:50;;;;;;;4.32;3.85;;;;;;;;;;5037006;28;20135;-74
2023/06/06 01:41:19;;;;;;;4.32;3.92;;;;;;;;;;5037464;28;20144;-74
2023/06/06 01:43:47;;;;;;;4.63;4.03;;;;;;;;;;5021056;28;20057;-74
2023/06/06 01:46:14;;;;;;;6.78;4.03;;;;;;;;;;5037055;28;20463;-74
2023/06/06 01:48:41;;;;;;;4.35;3.95;;;;;;;;;;5036888;28;20107;-74
2023/06/06 01:51:07;;;;;;;4.30;3.95;;;;;;;;;;5036961;28;20057;-74
2023/06/06 01:53:35;;;;;;;4.35;3.95;;;;;;;;;;5020908;28;20084;-74
2023/06/06 01:56:02;;;;;;;4.72;4.13;;;;;;;;;;5053488;28;20053;-74
2023/06/06 01:58:29;;;;;;;4.78;3.80;;;;;;;;;;5053426;28;20060;-75
2023/06/06 02:00:55;;;;;;;4.45;4.05;;;;;;;;;;5053111;28;20053;-74
2023/06/06 02:03:23;;;;;;;4.50;3.90;;;;;;;;;;5053121;28;20059;-74
2023/06/06 02:05:50;;;;;;;4.70;3.97;;;;;;;;;;5020718;28;20134;-74
2023/06/06 02:08:17;;;;;;;4.97;4.43;;;;;;;;;;5053408;28;20057;-74
2023/06/06 02:10:44;;;;;;;4.10;3.72;;;;;;;;;;5052978;28;20061;-74
2023/06/06 02:13:11;;;;;;;4.38;4.07;;;;;;;;;;5036772;28;20144;-75
2023/06/06 02:15:38;;;;;;;4.88;4.40;;;;;;;;;;5053250;28;20494;-74
2023/06/06 02:18:05;;;;;;;5.10;4.57;;;;;;;;;;5053056;28;20049;-74
2023/06/06 02:20:32;;;;;;;4.60;3.83;;;;;;;;;;5052903;28;20053;-74
2023/06/06 02:22:58;;;;;;;4.65;4.25;;;;;;;;;;5053419;28;20060;-74
2023/06/06 02:25:26;;;;;;;4.63;3.72;;;;;;;;;;5053203;28;20053;-74
2023/06/06 02:27:54;;;;;;;4.43;4.03;;;;;;;;;;5052938;28;20057;-74
2023/06/06 02:30:22;;;;;;;6.72;4.75;;;;;;;;;;5052848;28;20053;-74
2023/06/06 02:32:50;;;;;;;5.07;4.53;;;;;;;;;;5036785;28;20049;-74
2023/06/06 02:35:19;;;;;;;4.75;4.25;;;;;;;;;;5036766;28;20049;-74
2023/06/06 02:37:46;;;;;;;4.78;4.35;;;;;;;;;;5052994;28;20192;-74
2023/06/06 02:40:13;;;;;;;4.75;4.22;;;;;;;;;;5052759;28;20093;-74
2023/06/06 02:42:40;;;;;;;5.15;4.55;;;;;;;;;;5033675;28;20236;-75
2023/06/06 02:45:08;;;;;;;5.22;4.72;;;;;;;;;;5049747;28;20164;-74
2023/06/06 02:47:35;;;;;;;5.47;4.90;;;;;;;;;;5033374;28;20089;-74
2023/06/06 02:50:05;;;;;;;4.53;4.13;;;;;;;;;;5016957;28;20593;-74
2023/06/06 02:52:32;;;;;;;4.63;4.22;;;;;;;;;;5033675;28;20056;-74
2023/06/06 02:54:59;;;;;;;6.05;4.10;;;;;;;;;;5033534;28;20108;-74
2023/06/06 02:57:26;;;;;;;4.78;4.38;;;;;;;;;;5049741;28;20482;-74
2023/06/06 02:59:53;;;;;;;4.68;4.28;;;;;;;;;;5016927;28;20053;-75
2023/06/06 03:02:20;;;;;;;5.30;4.15;;;;;;;;;;5033340;28;20120;-75
2023/06/06 03:04:47;;;;;;;5.50;5.00;;;;;;;;;;5049586;28;20437;-74
2023/06/06 03:07:16;;;;;;;4.53;4.13;;;;;;;;;;5049599;28;20053;-74
2023/06/06 03:09:43;;;;;;;6.32;4.35;;;;;;;;;;5049637;28;20049;-74
2023/06/06 03:12:11;;;;;;;6.68;5.15;;;;;;;;;;5049227;28;20107;-74
2023/06/06 03:14:38;;;;;;;5.35;4.85;;;;;;;;;;5056278;28;20053;-75
2023/06/06 03:17:22;;;;;;;4.80;4.32;;;;;;;;;;5047289;28;20112;-74
2023/06/06 03:19:50;;;;;;;6.78;4.72;;;;;;;;;;5049461;28;20136;-74
2023/06/06 03:22:17;;;;;;;5.60;4.30;;;;;;;;;;5049547;28;20057;-74
2023/06/06 03:24:49;;;;;;;4.60;4.20;;;;;;;;;;5032887;28;20536;-74
2023/06/06 03:27:17;;;;;;;5.32;4.82;;;;;;;;;;5017458;28;20050;-74
2023/06/06 03:29:44;;;;;;;6.40;4.30;;;;;;;;;;5049500;28;20057;-74
2023/06/06 03:32:10;;;;;;;5.72;4.38;;;;;;;;;;5048834;28;20060;-74
2023/06/06 03:34:39;;;;;;;5.47;4.78;;;;;;;;;;5048880;28;20049;-74
2023/06/06 03:37:06;;;;;;;5.40;4.90;;;;;;;;;;5048709;28;20059;-74
2023/06/06 03:39:33;;;;;;;5.00;4.50;;;;;;;;;;5050038;28;20058;-74
2023/06/06 03:42:05;;;;;;;5.15;4.63;;;;;;;;;;5066333;28;20049;-74
2023/06/06 03:44:34;;;;;;;8.13;5.10;;;;;;;;;;5053735;28;20037;-74
2023/06/06 03:47:04;;;;;;;6.88;6.10;;;;;;;;;;5052673;28;20045;-76
2023/06/06 03:49:36;;;;;;;8.85;6.55;;;;;;;;;;5051361;28;20456;-75
2023/06/06 03:52:05;;;;;;;8.98;7.55;;;;;;;;;;5066353;28;20050;-76
2023/06/06 03:54:36;;;;;;;12.02;8.18;;;;;;;;;;5050574;28;20113;-75
2023/06/06 03:57:17;;;;;;;9.88;7.93;;;;;;;;;;5053047;28;20045;-74
2023/06/06 03:59:44;;;;;;;7.75;6.75;;;;;;;;;;5066915;28;20059;-75
2023/06/06 04:02:12;;;;;;;9.35;6.40;;;;;;;;;;5043585;28;20083;-76
2023/06/06 04:04:40;;;;;;;6.30;5.70;;;;;;;;;;5048793;28;20089;-75
2023/06/06 04:07:07;;;;;;;6.28;5.68;;;;;;;;;;5048283;28;20099;-76
2023/06/06 04:09:35;;;;;;;6.70;5.78;;;;;;;;;;5048238;28;20053;-76
2023/06/06 04:12:02;;;;;;;6.22;5.50;;;;;;;;;;5048191;28;20099;-75
2023/06/06 04:14:29;;;;;;;11.10;5.85;;;;;;;;;;5015450;28;20513;-75
2023/06/06 04:16:56;;;;;;;5.90;5.35;;;;;;;;;;5048185;28;20065;-76
2023/06/06 04:19:23;;;;;;;6.03;4.75;;;;;;;;;;5048165;28;20080;-73
2023/06/06 04:21:51;;;;;;;6.65;5.05;;;;;;;;;;5047854;28;20690;-76
2023/06/06 04:24:18;;;;;;;5.22;4.72;;;;;;;;;;5047930;28;20049;-76
2023/06/06 04:26:46;;;;;;;8.07;4.85;;;;;;;;;;5031706;28;20049;-73
2023/06/06 04:29:13;;;;;;;8.48;5.85;;;;;;;;;;5048348;28;20132;-73
2023/06/06 04:31:44;;;;;;;5.85;5.07;;;;;;;;;;5031419;28;20045;-73
2023/06/06 04:34:12;;;;;;;6.90;5.38;;;;;;;;;;5048049;28;20053;-73
2023/06/06 04:36:40;;;;;;;5.22;4.72;;;;;;;;;;5047912;28;20061;-73
2023/06/06 04:39:07;;;;;;;5.45;4.45;;;;;;;;;;5048028;28;20459;-73
2023/06/06 04:41:34;;;;;;;7.35;4.80;;;;;;;;;;5014788;28;20337;-73
2023/06/06 04:44:04;;;;;;;4.80;4.30;;;;;;;;;;5048760;28;20080;-73
2023/06/06 04:46:31;;;;;;;4.60;4.20;;;;;;;;;;5048744;28;20054;-73
2023/06/06 04:49:01;;;;;;;5.60;4.80;;;;;;;;;;5047703;28;20107;-74
2023/06/06 04:51:29;;;;;;;6.20;4.40;;;;;;;;;;5047420;28;20053;-74
2023/06/06 04:54:01;;;;;;;6.13;4.57;;;;;;;;;;5014638;28;20484;-74
2023/06/06 04:56:29;;;;;;;4.90;4.20;;;;;;;;;;5014769;28;20053;-74
2023/06/06 04:58:56;;;;;;;4.88;4.38;;;;;;;;;;5014595;28;20127;-73
2023/06/06 05:01:23;;;;;;;5.53;4.15;;;;;;;;;;5030787;28;20530;-74
2023/06/06 05:03:50;;;;;;;5.57;4.53;;;;;;;;;;5027092;28;20494;-74
2023/06/06 05:06:17;;;;;;;5.47;4.40;;;;;;;;;;5018688;28;20423;-75
2023/06/06 05:08:44;;;;;;;6.50;4.43;;;;;;;;;;5056580;28;20417;-75
2023/06/06 05:11:11;;;;;;;5.10;4.35;;;;;;;;;;5054602;28;20146;-74
2023/06/06 05:13:38;;;;;;;5.85;4.75;;;;;;;;;;5031175;28;20045;-74
2023/06/06 05:16:07;;;;;;;5.85;5.00;;;;;;;;;;5015975;28;20076;-75
2023/06/06 05:18:35;;;;;;;4.60;4.20;;;;;;;;;;5048969;28;20061;-74
2023/06/06 05:21:03;;;;;;;6.07;4.20;;;;;;;;;;5047045;28;20057;-74
2023/06/06 05:23:31;;;;;;;5.10;4.60;;;;;;;;;;5030865;28;20148;-75
2023/06/06 05:25:58;;;;;;;8.18;5.75;;;;;;;;;;5014773;28;20107;-74
2023/06/06 05:28:26;;;;;;;4.75;4.30;;;;;;;;;;5030519;28;20129;-74
2023/06/06 05:30:53;;;;;;;5.60;4.03;;;;;;;;;;5013995;28;20395;-74
2023/06/06 05:33:19;;;;;;;5.68;4.18;;;;;;;;;;5014573;28;20085;-74
2023/06/06 05:35:49;;;;;;;5.50;4.38;;;;;;;;;;5059018;28;20505;-74
2023/06/06 05:38:16;;;;;;;9.98;4.15;;;;;;;;;;5048687;28;20112;-74
2023/06/06 05:40:43;;;;;;;6.45;3.95;;;;;;;;;;5046947;28;20095;-74
2023/06/06 05:43:10;;;;;;;4.93;4.15;;;;;;;;;;5047087;28;20061;-74
2023/06/06 05:45:37;;;;;;;4.88;4.13;;;;;;;;;;5048549;28;20113;-74
2023/06/06 05:48:04;;;;;;;6.35;3.63;;;;;;;;;;5032131;28;20045;-74
2023/06/06 05:50:31;;;;;;;4.93;3.78;;;;;;;;;;5014895;28;20056;-74
2023/06/06 05:52:58;;;;;;;6.57;3.92;;;;;;;;;;5015516;28;20049;-74
2023/06/06 05:55:35;;;;;;;5.03;3.90;;;;;;;;;;5014506;28;20084;-74
2023/06/06 05:58:03;;;;;;;6.22;3.75;;;;;;;;;;5014468;28;20053;-74
2023/06/06 06:00:31;;;;;;;4.18;3.22;;;;;;;;;;4999435;28;20072;-74
2023/06/06 06:02:59;;;;;;;4.55;3.85;;;;;;;;;;5047022;28;20056;-74
2023/06/06 06:05:30;;;;;;;4.63;3.53;;;;;;;;;;4998651;28;20049;-75
2023/06/06 06:08:00;;;;;;;3.92;3.50;;;;;;;;;;5015222;28;20107;-75
2023/06/06 06:10:32;;;;;;;6.22;3.90;;;;;;;;;;5040964;28;20049;-74
2023/06/06 06:12:59;;;;;;;5.15;3.30;;;;;;;;;;5030248;28;20508;-74
2023/06/06 06:15:26;;;;;;;5.35;3.17;;;;;;;;;;5030307;28;20054;-75
2023/06/06 06:17:56;;;;;;;4.60;3.50;;;;;;;;;;5033194;28;20494;-74
2023/06/06 06:20:23;;;;;;;6.85;3.40;;;;;;;;;;5050319;28;20498;-75
2023/06/06 06:22:49;;;;;;;4.95;3.47;;;;;;;;;;5050327;28;20103;-74
2023/06/06 06:25:16;;;;;;;7.25;2.95;;;;;;;;;;5050403;28;20497;-75
2023/06/06 06:27:47;;;;;;;4.43;3.83;;;;;;;;;;5033628;28;20108;-74
2023/06/06 06:30:14;;;;;;;6.45;4.93;;;;;;;;;;5002554;28;20058;-74
2023/06/06 06:32:44;;;;;;;5.15;3.83;;;;;;;;;;5018671;28;20453;-74
2023/06/06 06:35:10;;;;;;;6.28;4.18;;;;;;;;;;5034290;28;20097;-75
2023/06/06 06:37:39;;;;;;;4.38;3.45;;;;;;;;;;5049891;28;20406;-75
2023/06/06 06:40:09;;;;;;;4.72;3.33;;;;;;;;;;5049649;28;20053;-74
2023/06/06 06:42:44;;;;;;;3.80;3.40;;;;;;;;;;5033164;28;20054;-74
2023/06/06 06:45:14;;;;;;;4.30;3.90;;;;;;;;;;5018743;28;20107;-74
2023/06/06 06:47:41;;;;;;;5.20;3.45;;;;;;;;;;5017067;28;20437;-74
2023/06/06 06:50:10;;;;;;;5.65;3.92;;;;;;;;;;5033325;28;20060;-75
2023/06/06 06:52:37;;;;;;;7.00;3.92;;;;;;;;;;5049922;28;20111;-74
2023/06/06 06:55:05;;;;;;;3.60;3.17;;;;;;;;;;5016986;28;20084;-74
2023/06/06 06:57:33;;;;;;;4.88;3.97;;;;;;;;;;5033187;28;20540;-74
2023/06/06 07:00:23;;;;;;;4.45;3.47;;;;;;;;;;5052344;28;20049;-74
2023/06/06 07:02:56;;;;;;;5.95;3.58;;;;;;;;;;5035282;28;20115;-74
2023/06/06 07:05:23;;;;;;;8.63;4.07;;;;;;;;;;5018172;28;20061;-74
2023/06/06 07:07:52;;;;;;;4.78;3.35;;;;;;;;;;5049293;28;20425;-74
2023/06/06 07:10:22;;;;;;;3.65;3.30;;;;;;;;;;5033188;28;20421;-74
2023/06/06 07:12:50;;;;;;;4.53;3.58;;;;;;;;;;5016635;28;20054;-74
2023/06/06 07:15:17;;;;;;;5.10;3.38;;;;;;;;;;5036003;28;20061;-74
2023/06/06 07:17:49;;;;;;;3.60;3.30;;;;;;;;;;5032579;28;20132;-74
2023/06/06 07:20:21;;;;;;;5.53;3.30;;;;;;;;;;5049183;28;20057;-74
2023/06/06 07:22:50;;;;;;;4.03;3.10;;;;;;;;;;5049422;28;20320;-74
2023/06/06 07:25:17;;;;;;;5.60;3.08;;;;;;;;;;5032797;28;20437;-74
2023/06/06 07:27:44;;;;;;;5.10;3.30;;;;;;;;;;5048425;28;20512;-74
2023/06/06 07:30:14;;;;;;;4.63;3.50;;;;;;;;;;5048314;28;20057;-74
2023/06/06 07:32:42;;;;;;;5.05;3.17;;;;;;;;;;5049032;28;20049;-74
2023/06/06 07:35:11;;;;;;;3.03;2.72;;;;;;;;;;5048878;28;20457;-74
2023/06/06 07:37:38;;;;;;;3.35;2.95;;;;;;;;;;5032281;28;20512;-74
2023/06/06 07:40:08;;;;;;;3.60;3.30;;;;;;;;;;5015948;28;20053;-74
2023/06/06 07:42:40;;;;;;;5.30;3.40;;;;;;;;;;5032290;28;20057;-74
2023/06/06 07:45:07;;;;;;;4.07;2.95;;;;;;;;;;5015730;28;20050;-74
2023/06/06 07:47:34;;;;;;;4.43;3.03;;;;;;;;;;5015815;28;20096;-74
2023/06/06 07:50:02;;;;;;;3.38;3.00;;;;;;;;;;5048032;28;20069;-74
2023/06/06 07:52:32;;;;;;;6.30;3.25;;;;;;;;;;5048578;28;20053;-74
2023/06/06 07:54:59;;;;;;;4.10;3.17;;;;;;;;;;5032458;28;20462;-74
2023/06/06 07:57:27;;;;;;;4.80;2.97;;;;;;;;;;5048291;28;20057;-74
2023/06/06 07:59:54;;;;;;;4.25;3.15;;;;;;;;;;4999603;28;20081;-75
2023/06/06 08:02:21;;;;;;;6.93;3.53;;;;;;;;;;5015407;28;20054;-74
2023/06/06 08:04:48;;;;;;;9.10;4.97;;;;;;;;;;5048360;28;20049;-74
2023/06/06 08:07:15;;;;;;;5.38;2.90;;;;;;;;;;5048304;28;20144;-75
2023/06/06 08:09:43;;;;;;;3.47;2.70;;;;;;;;;;5031852;28;20089;-74
2023/06/06 08:12:10;;;;;;;3.53;2.80;;;;;;;;;;5031479;28;20543;-74
2023/06/06 08:14:38;;;;;;;3.88;3.05;;;;;;;;;;5031825;28;20099;-74
2023/06/06 08:17:05;;;;;;;3.40;2.53;;;;;;;;;;5015652;28;20053;-74
2023/06/06 08:19:33;;;;;;;2.90;2.55;;;;;;;;;;4999698;28;20061;-74
2023/06/06 08:22:01;;;;;;;2.63;2.42;;;;;;;;;;5047766;28;20509;-74
2023/06/06 08:24:29;;;;;;;2.65;2.17;;;;;;;;;;5015220;28;20059;-74
2023/06/06 08:26:56;;;;;;;5.93;2.40;;;;;;;;;;5015308;28;20168;-74
2023/06/06 08:29:23;;;;;;;5.35;2.53;;;;;;;;;;5031390;28;20501;-74
2023/06/06 08:31:50;;;;;;;3.55;2.40;;;;;;;;;;5031256;28;20057;-74
2023/06/06 08:34:17;;;;;;;4.38;2.22;;;;;;;;;;5047609;28;20053;-74
2023/06/06 08:36:44;;;;;;;3.92;2.30;;;;;;;;;;5031288;28;20050;-74
2023/06/06 08:39:11;;;;;;;2.55;2.15;;;;;;;;;;5047268;28;20055;-74
2023/06/06 08:41:38;;;;;;;4.82;2.30;;;;;;;;;;5030133;28;20319;-74
2023/06/06 08:44:05;;;;;;;2.50;2.22;;;;;;;;;;5014830;28;20053;-74
2023/06/06 08:46:33;;;;;;;4.63;2.40;;;;;;;;;;4998582;28;20049;-74
2023/06/06 08:49:04;;;;;;;5.18;2.17;;;;;;;;;;5015442;28;20564;-74
2023/06/06 08:51:31;;;;;;;2.35;2.15;;;;;;;;;;5031035;28;20107;-74
2023/06/06 08:53:59;;;;;;;2.67;2.47;;;;;;;;;;5032164;28;20057;-74
2023/06/06 08:56:26;;;;;;;4.45;2.17;;;;;;;;;;5017948;28;20498;-74
2023/06/06 08:58:53;;;;;;;3.92;2.60;;;;;;;;;;5014668;28;20080;-74
2023/06/06 09:01:21;;;;;;;3.10;2.38;;;;;;;;;;5047106;28;20093;-74
2023/06/06 09:03:48;;;;;;;4.55;2.80;;;;;;;;;;5031056;28;20049;-74
2023/06/06 09:06:18;;;;;;;3.65;2.40;;;;;;;;;;5031051;28;20452;-74
2023/06/06 09:08:45;;;;;;;3.83;2.40;;;;;;;;;;5047165;28;20485;-74
2023/06/06 09:11:11;;;;;;;3.00;2.47;;;;;;;;;;5037783;28;20049;-74
2023/06/06 09:13:41;;;;;;;3.67;2.60;;;;;;;;;;5014484;28;20045;-74
2023/06/06 09:16:08;;;;;;;3.47;2.25;;;;;;;;;;5030666;28;20548;-74
2023/06/06 09:18:35;;;;;;;4.00;1.92;;;;;;;;;;5030747;28;20394;-74
2023/06/06 09:21:02;;;;;;;3.90;2.40;;;;;;;;;;5046918;28;20111;-74
2023/06/06 09:23:32;;;;;;;5.18;2.67;;;;;;;;;;5031030;28;20049;-74
2023/06/06 09:26:00;;;;;;;3.90;3.42;;;;;;;;;;5015012;28;20061;-74
2023/06/06 09:28:40;;;;;;;3.95;2.83;;;;;;;;;;5030778;28;20079;-74
2023/06/06 09:31:30;;;;;;;4.43;2.72;;;;;;;;;;5047898;28;20348;-74
2023/06/06 09:33:58;;;;;;;2.70;2.38;;;;;;;;;;5031191;28;20049;-74
2023/06/06 09:36:27;;;;;;;3.00;2.70;;;;;;;;;;5015598;28;20113;-74
2023/06/06 09:39:12;;;;;;;3.53;2.60;;;;;;;;;;5031870;28;20056;-74
2023/06/06 09:41:40;;;;;;;4.35;3.08;;;;;;;;;;5016535;28;20072;-74
2023/06/06 09:44:23;;;;;;;3.33;2.45;;;;;;;;;;5015405;28;20123;-74
2023/06/06 09:47:00;;;;;;;4.30;2.80;;;;;;;;;;5032684;28;20076;-74
2023/06/06 09:49:34;;;;;;;5.10;2.80;;;;;;;;;;5047807;28;20129;-74
2023/06/06 09:52:03;;;;;;;3.17;2.88;;;;;;;;;;5051972;28;20103;-74
2023/06/06 09:54:29;;;;;;;9.25;3.05;;;;;;;;;;5052522;28;20460;-74
2023/06/06 09:56:56;;;;;;;4.65;3.05;;;;;;;;;;5035556;28;20057;-74
2023/06/06 09:59:27;;;;;;;3.38;2.30;;;;;;;;;;5052004;28;20132;-74
2023/06/06 10:01:58;;;;;;;3.45;2.60;;;;;;;;;;5020415;28;20057;-74
2023/06/06 10:04:28;;;;;;;3.80;2.78;;;;;;;;;;5036965;28;20057;-74
2023/06/06 10:06:57;;;;;;;3.10;2.70;;;;;;;;;;5035642;28;20077;-74
2023/06/06 10:09:23;;;;;;;2.95;2.65;;;;;;;;;;5021277;28;20049;-74
2023/06/06 10:11:50;;;;;;;4.07;2.70;;;;;;;;;;5035801;28;20441;-75
2023/06/06 10:14:17;;;;;;;4.30;3.03;;;;;;;;;;5035379;28;20050;-74
2023/06/06 10:16:44;;;;;;;3.08;2.65;;;;;;;;;;5019226;28;20049;-74
2023/06/06 10:19:12;;;;;;;4.32;2.42;;;;;;;;;;5034801;28;20059;-75
2023/06/06 10:21:40;;;;;;;4.55;2.50;;;;;;;;;;5034112;28;20494;-74
2023/06/06 10:24:07;;;;;;;4.35;2.83;;;;;;;;;;5050499;28;20057;-74
2023/06/06 10:27:08;;;;;;;5.38;2.80;;;;;;;;;;5050328;28;20088;-74
2023/06/06 10:29:52;;;;;;;4.82;2.80;;;;;;;;;;5017427;28;20136;-74
2023/06/06 10:32:43;;;;;;;4.75;3.35;;;;;;;;;;5039052;28;20045;-74
2023/06/06 10:35:11;;;;;;;3.45;2.83;;;;;;;;;;5043932;28;20081;-74
2023/06/06 10:37:38;;;;;;;4.50;2.72;;;;;;;;;;5017413;28;20107;-74
2023/06/06 10:40:09;;;;;;;4.70;2.63;;;;;;;;;;5017077;28;20083;-74
2023/06/06 10:42:40;;;;;;;3.70;2.30;;;;;;;;;;5050154;28;20061;-74
2023/06/06 10:45:07;;;;;;;3.30;2.70;;;;;;;;;;5017358;28;20061;-74
2023/06/06 10:47:39;;;;;;;5.13;2.60;;;;;;;;;;5033504;28;20053;-74
2023/06/06 10:50:11;;;;;;;6.43;3.00;;;;;;;;;;5001502;28;20045;-74
2023/06/06 10:52:51;;;;;;;7.38;3.00;;;;;;;;;;5033450;28;20111;-74
2023/06/06 10:55:24;;;;;;;6.90;2.85;;;;;;;;;;5033807;28;20064;-74
2023/06/06 10:58:03;;;;;;;4.93;2.63;;;;;;;;;;5033602;28;20057;-74
2023/06/06 11:00:34;;;;;;;3.80;3.00;;;;;;;;;;5049592;28;20064;-74
2023/06/06 11:03:15;;;;;;;4.93;3.17;;;;;;;;;;5032307;28;20056;-74
2023/06/06 11:06:01;;;;;;;4.75;2.90;;;;;;;;;;5034467;28;20065;-74
2023/06/06 11:08:32;;;;;;;5.80;3.08;;;;;;;;;;5034009;28;20053;-74
2023/06/06 11:11:28;;;;;;;5.50;3.03;;;;;;;;;;5033325;28;20057;-74
2023/06/06 11:14:02;;;;;;;2.85;2.28;;;;;;;;;;5016746;28;20049;-74
2023/06/06 11:16:43;;;;;;;3.30;2.35;;;;;;;;;;5017209;28;20567;-74
2023/06/06 11:19:14;;;;;;;7.00;2.83;;;;;;;;;;5032622;28;20045;-74
2023/06/06 11:21:42;;;;;;;4.53;2.88;;;;;;;;;;5016915;28;20422;-74
2023/06/06 11:24:09;;;;;;;4.80;2.80;;;;;;;;;;5016999;28;20123;-74
2023/06/06 11:26:37;;;;;;;4.60;2.65;;;;;;;;;;5049181;28;20057;-74
2023/06/06 11:29:05;;;;;;;6.97;2.80;;;;;;;;;;5016712;28;20046;-74
2023/06/06 11:31:33;;;;;;;4.40;2.72;;;;;;;;;;5048948;28;20068;-75
2023/06/06 11:34:05;;;;;;;4.32;2.92;;;;;;;;;;5049347;28;20053;-74
2023/06/06 11:36:36;;;;;;;4.15;2.88;;;;;;;;;;5033968;28;20064;-74
2023/06/06 11:39:08;;;;;;;4.32;2.63;;;;;;;;;;5032806;28;20119;-74
2023/06/06 11:41:42;;;;;;;3.42;2.50;;;;;;;;;;4999998;28;20104;-74
2023/06/06 11:44:10;;;;;;;3.10;2.40;;;;;;;;;;5049019;28;20088;-74
2023/06/06 11:46:44;;;;;;;5.15;3.08;;;;;;;;;;5048633;28;20088;-74
2023/06/06 11:49:11;;;;;;;5.65;2.67;;;;;;;;;;5016401;28;20060;-74
2023/06/06 11:51:38;;;;;;;3.55;3.15;;;;;;;;;;5048796;28;20096;-74
2023/06/06 11:54:12;;;;;;;3.42;2.30;;;;;;;;;;5048798;28;20132;-74
2023/06/06 11:56:40;;;;;;;5.90;2.80;;;;;;;;;;5032050;28;20494;-74
2023/06/06 11:59:08;;;;;;;2.70;2.50;;;;;;;;;;5015743;28;20563;-74
2023/06/06 12:01:35;;;;;;;4.45;2.60;;;;;;;;;;5048499;28;20536;-74
2023/06/06 12:04:06;;;;;;;3.97;3.00;;;;;;;;;;5015875;28;20421;-74
2023/06/06 12:06:33;;;;;;;3.53;2.85;;;;;;;;;;5032177;28;20049;-74
2023/06/06 12:09:00;;;;;;;4.78;2.60;;;;;;;;;;5034703;28;20080;-74
2023/06/06 12:11:29;;;;;;;6.38;2.78;;;;;;;;;;5025218;28;20058;-74
2023/06/06 12:13:57;;;;;;;3.15;2.33;;;;;;;;;;5041638;28;20050;-74
2023/06/06 12:16:28;;;;;;;5.63;3.42;;;;;;;;;;4999138;28;20053;-74
2023/06/06 12:18:55;;;;;;;3.33;2.70;;;;;;;;;;5031978;28;20461;-74
2023/06/06 12:21:22;;;;;;;4.30;2.60;;;;;;;;;;5015229;28;20128;-74
2023/06/06 12:23:49;;;;;;;4.85;2.30;;;;;;;;;;5015297;28;20418;-75
2023/06/06 12:26:19;;;;;;;4.55;2.58;;;;;;;;;;5047849;28;20510;-74
2023/06/06 12:28:59;;;;;;;4.47;2.88;;;;;;;;;;5048043;28;20061;-74
2023/06/06 12:31:27;;;;;;;3.85;2.40;;;;;;;;;;4999270;28;20096;-74
2023/06/06 12:33:57;;;;;;;3.33;2.40;;;;;;;;;;5048055;28;20079;-74
2023/06/06 12:36:27;;;;;;;3.50;2.45;;;;;;;;;;5015234;28;20068;-74
2023/06/06 12:39:03;;;;;;;2.80;2.38;;;;;;;;;;5015557;28;20115;-74
2023/06/06 12:41:39;;;;;;;2.92;2.63;;;;;;;;;;5085388;22;20413;-83
2023/06/06 12:44:13;;;;;;;4.28;2.83;;;;;;;;;;4998840;28;20064;-83
2023/06/06 12:46:41;;;;;;;3.75;2.78;;;;;;;;;;4994936;28;20054;-83
2023/06/06 12:49:09;;;;;;;5.00;2.70;;;;;;;;;;4977105;28;20066;-83
2023/06/06 12:51:38;;;;;;;3.33;2.70;;;;;;;;;;4977545;28;20054;-83
2023/06/06 12:54:05;;;;;;;3.55;2.75;;;;;;;;;;4977786;28;20054;-83
2023/06/06 12:56:32;;;;;;;2.80;2.58;;;;;;;;;;4993834;28;20057;-84
2023/06/06 12:59:00;;;;;;;4.18;2.78;;;;;;;;;;4993435;28;20046;-84
2023/06/06 13:01:28;;;;;;;5.22;2.58;;;;;;;;;;4961284;28;20145;-84
2023/06/06 13:03:56;;;;;;;3.78;2.60;;;;;;;;;;4977344;28;20050;-83
2023/06/06 13:06:23;;;;;;;2.47;2.15;;;;;;;;;;4977423;28;20148;-84
2023/06/06 13:08:50;;;;;;;3.92;2.45;;;;;;;;;;4977450;28;20498;-84
2023/06/06 13:11:17;;;;;;;3.40;2.50;;;;;;;;;;4993546;28;20495;-83
2023/06/06 13:13:45;;;;;;;3.70;2.47;;;;;;;;;;4993877;28;20089;-84
2023/06/06 13:16:12;;;;;;;4.53;2.67;;;;;;;;;;4977510;28;20060;-83
2023/06/06 13:18:39;;;;;;;2.80;2.30;;;;;;;;;;4995734;28;20054;-83
2023/06/06 13:21:06;;;;;;;3.65;2.33;;;;;;;;;;4996926;28;20054;-84
2023/06/06 13:23:33;;;;;;;4.20;2.42;;;;;;;;;;4979517;28;20104;-84
2023/06/06 13:25:59;;;;;;;6.18;2.47;;;;;;;;;;4978661;28;20051;-83
2023/06/06 13:28:26;;;;;;;5.00;2.40;;;;;;;;;;4978490;28;20057;-84
2023/06/06 13:30:53;;;;;;;4.35;2.50;;;;;;;;;;4978024;28;20101;-84
2023/06/06 13:33:20;;;;;;;2.80;2.50;;;;;;;;;;4978980;28;20059;-83
2023/06/06 13:35:48;;;;;;;4.00;2.25;;;;;;;;;;4994560;28;20062;-84
2023/06/06 13:38:17;;;;;;;4.70;2.40;;;;;;;;;;4962772;28;20570;-84
2023/06/06 13:40:44;;;;;;;3.88;2.40;;;;;;;;;;4978917;28;20411;-83
2023/06/06 13:43:11;;;;;;;3.75;2.58;;;;;;;;;;4979056;28;20125;-82
2023/06/06 13:45:42;;;;;;;3.85;2.80;;;;;;;;;;4963599;28;20058;-82
2023/06/06 13:48:09;;;;;;;2.78;2.50;;;;;;;;;;4963052;28;20569;-82
2023/06/06 13:50:36;;;;;;;3.92;2.50;;;;;;;;;;4978623;28;20112;-82
2023/06/06 13:53:03;;;;;;;4.85;2.28;;;;;;;;;;4994622;28;20141;-82
2023/06/06 13:55:31;;;;;;;5.35;2.65;;;;;;;;;;4978952;28;20061;-82
2023/06/06 13:58:02;;;;;;;4.65;2.38;;;;;;;;;;4978562;28;20182;-82
2023/06/06 14:00:32;;;;;;;5.55;2.55;;;;;;;;;;4979255;28;20053;-82
2023/06/06 14:03:02;;;;;;;2.65;1.80;;;;;;;;;;4978509;28;20084;-83
2023/06/06 14:05:29;;;;;;;4.30;2.30;;;;;;;;;;4963929;28;20050;-83
2023/06/06 14:07:56;;;;;;;6.20;1.90;;;;;;;;;;4995325;28;20423;-83
2023/06/06 14:10:23;;;;;;;2.60;2.20;;;;;;;;;;4994772;28;20510;-83
2023/06/06 14:12:50;;;;;;;2.97;1.95;;;;;;;;;;4979783;28;20057;-83
2023/06/06 14:15:17;;;;;;;3.15;2.15;;;;;;;;;;4994803;28;20096;-83
2023/06/06 14:17:44;;;;;;;5.03;2.30;;;;;;;;;;4963580;28;20105;-83
2023/06/06 14:20:13;;;;;;;4.35;2.38;;;;;;;;;;4963437;28;20046;-83
2023/06/06 14:22:40;;;;;;;3.83;2.50;;;;;;;;;;4963162;28;20084;-83
2023/06/06 14:25:07;;;;;;;2.90;2.13;;;;;;;;;;4978319;28;20060;-82
2023/06/06 14:27:36;;;;;;;2.97;2.67;;;;;;;;;;4978787;28;20457;-83
2023/06/06 14:30:05;;;;;;;5.65;2.10;;;;;;;;;;4978641;28;20061;-83
2023/06/06 14:32:32;;;;;;;3.35;2.15;;;;;;;;;;4962668;28;20061;-83
2023/06/06 14:35:04;;;;;;;4.68;2.08;;;;;;;;;;4979362;28;20082;-83
2023/06/06 14:37:31;;;;;;;2.85;1.98;;;;;;;;;;4995228;28;20066;-83
2023/06/06 14:39:59;;;;;;;4.68;2.00;;;;;;;;;;4998545;28;20058;-83
2023/06/06 14:42:27;;;;;;;3.58;1.92;;;;;;;;;;4982533;28;20068;-83
2023/06/06 14:44:55;;;;;;;1.75;1.65;;;;;;;;;;4982022;28;20064;-82
2023/06/06 14:47:22;;;;;;;2.33;1.98;;;;;;;;;;4998900;28;20058;-83
2023/06/06 14:49:49;;;;;;;3.42;1.92;;;;;;;;;;4965759;28;20065;-83
2023/06/06 14:52:16;;;;;;;2.65;1.90;;;;;;;;;;4998129;28;20561;-83
2023/06/06 14:54:43;;;;;;;3.28;2.10;;;;;;;;;;4998787;28;20109;-83